sensor_id;sensor_type;location;lat;lon;timestamp;P1;durP1;ratioP1;P2;durP2;ratioP2
15820;SDS011;8011;51.650;7.240;2022-08-20T03:00:18;11.67;;;10.10;;
15820;SDS011;8011;51.650;7.240;2022-08-20T03:02:45;11.70;;;10.37;;
15820;SDS011;8011;51.650;7.240;2022-08-20T03:05:13;10.80;;;9.57;;
15820;SDS011;8011;51.650;7.240;2022-08-20T03:07:43;11.90;;;10.07;;
15820;SDS011;8011;51.650;7.240;2022-08-20T03:10:11;12.17;;;10.30;;
15820;SDS011;8011;51.650;7.240;2022-08-20T03:15:38;11.67;;;9.87;;
15820;SDS011;8011;51.650;7.240;2022-08-20T03:18:06;13.50;;;11.30;;
15820;SDS011;8011;51.650;7.240;2022-08-20T03:20:32;13.87;;;11.27;;
15820;SDS011;8011;51.650;7.240;2022-08-20T03:22:57;13.33;;;10.33;;
15820;SDS011;8011;51.650;7.240;2022-08-20T03:25:24;13.00;;;11.17;;
15820;SDS011;8011;51.650;7.240;2022-08-20T03:27:50;14.67;;;11.87;;
15820;SDS011;8011;51.650;7.240;2022-08-20T03:30:16;12.93;;;11.03;;
15820;SDS011;8011;51.650;7.240;2022-08-20T03:32:43;13.97;;;11.20;;
15820;SDS011;8011;51.650;7.240;2022-08-20T03:35:11;13.07;;;10.60;;
15820;SDS011;8011;51.650;7.240;2022-08-20T03:37:39;14.17;;;11.33;;
15820;SDS011;8011;51.650;7.240;2022-08-20T03:40:06;12.00;;;10.67;;
15820;SDS011;8011;51.650;7.240;2022-08-20T03:42:36;14.30;;;11.57;;
15820;SDS011;8011;51.650;7.240;2022-08-20T03:45:06;13.50;;;11.87;;
15820;SDS011;8011;51.650;7.240;2022-08-20T03:47:33;13.90;;;11.53;;
15820;SDS011;8011;51.650;7.240;2022-08-20T03:49:59;15.73;;;11.90;;
15820;SDS011;8011;51.650;7.240;2022-08-20T03:52:26;14.33;;;12.10;;
15820;SDS011;8011;51.650;7.240;2022-08-20T03:54:53;14.83;;;12.10;;
15820;SDS011;8011;51.650;7.240;2022-08-20T03:57:19;15.93;;;12.07;;
15820;SDS011;8011;51.650;7.240;2022-08-20T03:59:45;13.33;;;11.70;;
15820;SDS011;8011;51.650;7.240;2022-08-20T04:02:12;14.73;;;12.03;;
15820;SDS011;8011;51.650;7.240;2022-08-20T04:04:39;15.73;;;12.10;;
15820;SDS011;8011;51.650;7.240;2022-08-20T04:07:16;13.27;;;11.77;;
15820;SDS011;8011;51.650;7.240;2022-08-20T04:09:49;15.10;;;12.50;;
15820;SDS011;8011;51.650;7.240;2022-08-20T04:12:18;16.27;;;12.07;;
15820;SDS011;8011;51.650;7.240;2022-08-20T04:14:46;16.30;;;11.93;;
15820;SDS011;8011;51.650;7.240;2022-08-20T04:17:12;15.50;;;11.93;;
15820;SDS011;8011;51.650;7.240;2022-08-20T04:19:38;15.90;;;12.17;;
15820;SDS011;8011;51.650;7.240;2022-08-20T04:22:04;14.93;;;11.87;;
15820;SDS011;8011;51.650;7.240;2022-08-20T04:24:32;14.23;;;12.20;;
15820;SDS011;8011;51.650;7.240;2022-08-20T04:26:59;14.23;;;12.10;;
15820;SDS011;8011;51.650;7.240;2022-08-20T04:29:26;13.50;;;10.87;;
15820;SDS011;8011;51.650;7.240;2022-08-20T04:31:53;15.33;;;11.97;;
15820;SDS011;8011;51.650;7.240;2022-08-20T04:34:19;13.97;;;12.37;;
15820;SDS011;8011;51.650;7.240;2022-08-20T04:36:46;15.17;;;13.17;;
15820;SDS011;8011;51.650;7.240;2022-08-20T04:39:13;13.73;;;11.67;;
15820;SDS011;8011;51.650;7.240;2022-08-20T04:41:39;14.93;;;12.80;;
15820;SDS011;8011;51.650;7.240;2022-08-20T04:44:05;17.20;;;11.83;;
15820;SDS011;8011;51.650;7.240;2022-08-20T04:46:32;15.13;;;12.53;;
15820;SDS011;8011;51.650;7.240;2022-08-20T04:48:57;13.97;;;11.80;;
15820;SDS011;8011;51.650;7.240;2022-08-20T04:51:25;15.33;;;11.70;;
15820;SDS011;8011;51.650;7.240;2022-08-20T04:53:55;13.47;;;11.80;;
15820;SDS011;8011;51.650;7.240;2022-08-20T04:56:21;15.17;;;11.53;;
15820;SDS011;8011;51.650;7.240;2022-08-20T04:58:56;14.97;;;12.00;;
15820;SDS011;8011;51.650;7.240;2022-08-20T05:01:23;14.33;;;11.60;;
15820;SDS011;8011;51.650;7.240;2022-08-20T05:03:50;15.23;;;11.80;;
15820;SDS011;8011;51.650;7.240;2022-08-20T05:06:18;14.53;;;11.60;;
15820;SDS011;8011;51.650;7.240;2022-08-20T05:08:45;13.37;;;11.47;;
15820;SDS011;8011;51.650;7.240;2022-08-20T05:11:12;14.97;;;12.43;;
15820;SDS011;8011;51.650;7.240;2022-08-20T05:13:41;16.80;;;12.53;;
15820;SDS011;8011;51.650;7.240;2022-08-20T05:16:07;15.73;;;12.80;;
15820;SDS011;8011;51.650;7.240;2022-08-20T05:18:33;15.20;;;12.90;;
15820;SDS011;8011;51.650;7.240;2022-08-20T05:20:59;16.53;;;13.40;;
15820;SDS011;8011;51.650;7.240;2022-08-20T05:23:32;18.13;;;13.87;;
15820;SDS011;8011;51.650;7.240;2022-08-20T05:26:00;14.27;;;12.77;;
15820;SDS011;8011;51.650;7.240;2022-08-20T05:28:30;16.20;;;13.17;;
15820;SDS011;8011;51.650;7.240;2022-08-20T05:30:57;14.50;;;13.00;;
15820;SDS011;8011;51.650;7.240;2022-08-20T05:33:24;14.43;;;12.93;;
15820;SDS011;8011;51.650;7.240;2022-08-20T05:35:51;14.37;;;11.93;;
15820;SDS011;8011;51.650;7.240;2022-08-20T05:38:19;15.77;;;13.07;;
15820;SDS011;8011;51.650;7.240;2022-08-20T05:40:48;15.20;;;12.63;;
15820;SDS011;8011;51.650;7.240;2022-08-20T05:43:15;14.27;;;12.60;;
15820;SDS011;8011;51.650;7.240;2022-08-20T05:45:42;17.20;;;13.13;;
15820;SDS011;8011;51.650;7.240;2022-08-20T05:48:13;13.77;;;12.20;;
15820;SDS011;8011;51.650;7.240;2022-08-20T05:50:41;15.47;;;13.57;;
15820;SDS011;8011;51.650;7.240;2022-08-20T05:53:07;16.60;;;13.20;;
15820;SDS011;8011;51.650;7.240;2022-08-20T05:55:33;14.10;;;12.53;;
15820;SDS011;8011;51.650;7.240;2022-08-20T05:58:03;14.40;;;12.67;;
15820;SDS011;8011;51.650;7.240;2022-08-20T06:00:32;16.23;;;13.03;;
15820;SDS011;8011;51.650;7.240;2022-08-20T06:02:59;16.23;;;13.80;;
15820;SDS011;8011;51.650;7.240;2022-08-20T06:05:43;14.87;;;13.03;;
15820;SDS011;8011;51.650;7.240;2022-08-20T06:08:09;16.30;;;13.23;;
15820;SDS011;8011;51.650;7.240;2022-08-20T06:10:37;13.40;;;12.00;;
15820;SDS011;8011;51.650;7.240;2022-08-20T06:13:04;14.60;;;12.57;;
15820;SDS011;8011;51.650;7.240;2022-08-20T06:15:30;14.10;;;12.60;;
15820;SDS011;8011;51.650;7.240;2022-08-20T06:17:57;13.97;;;12.50;;
15820;SDS011;8011;51.650;7.240;2022-08-20T06:20:23;14.23;;;12.83;;
15820;SDS011;8011;51.650;7.240;2022-08-20T06:22:48;15.70;;;14.03;;
15820;SDS011;8011;51.650;7.240;2022-08-20T06:25:14;13.30;;;11.83;;
15820;SDS011;8011;51.650;7.240;2022-08-20T06:27:41;15.40;;;13.30;;
15820;SDS011;8011;51.650;7.240;2022-08-20T06:30:08;14.30;;;12.63;;
15820;SDS011;8011;51.650;7.240;2022-08-20T06:32:35;14.00;;;12.47;;
15820;SDS011;8011;51.650;7.240;2022-08-20T06:35:02;15.13;;;13.63;;
15820;SDS011;8011;51.650;7.240;2022-08-20T06:37:30;14.30;;;12.83;;
15820;SDS011;8011;51.650;7.240;2022-08-20T06:40:02;13.50;;;12.10;;
15820;SDS011;8011;51.650;7.240;2022-08-20T06:42:35;15.63;;;12.70;;
15820;SDS011;8011;51.650;7.240;2022-08-20T06:45:07;13.73;;;12.43;;
15820;SDS011;8011;51.650;7.240;2022-08-20T06:47:41;13.80;;;11.57;;
15820;SDS011;8011;51.650;7.240;2022-08-20T06:50:08;13.80;;;12.40;;
15820;SDS011;8011;51.650;7.240;2022-08-20T06:52:37;11.97;;;10.77;;
15820;SDS011;8011;51.650;7.240;2022-08-20T06:55:07;13.00;;;11.70;;
15820;SDS011;8011;51.650;7.240;2022-08-20T06:57:35;12.43;;;11.13;;
15820;SDS011;8011;51.650;7.240;2022-08-20T07:00:06;10.50;;;9.40;;
15820;SDS011;8011;51.650;7.240;2022-08-20T07:02:34;11.47;;;8.63;;
15820;SDS011;8011;51.650;7.240;2022-08-20T07:05:00;10.10;;;9.00;;
15820;SDS011;8011;51.650;7.240;2022-08-20T07:07:26;10.60;;;9.60;;
15820;SDS011;8011;51.650;7.240;2022-08-20T07:09:59;9.77;;;8.77;;
15820;SDS011;8011;51.650;7.240;2022-08-20T07:12:29;10.27;;;9.23;;
15820;SDS011;8011;51.650;7.240;2022-08-20T07:14:54;11.30;;;9.97;;
15820;SDS011;8011;51.650;7.240;2022-08-20T07:17:20;11.03;;;9.30;;
15820;SDS011;8011;51.650;7.240;2022-08-20T07:19:46;7.23;;;6.53;;
15820;SDS011;8011;51.650;7.240;2022-08-20T07:22:11;8.80;;;8.00;;
15820;SDS011;8011;51.650;7.240;2022-08-20T07:24:38;9.23;;;8.33;;
15820;SDS011;8011;51.650;7.240;2022-08-20T07:27:04;8.43;;;7.53;;
15820;SDS011;8011;51.650;7.240;2022-08-20T07:29:30;8.40;;;7.60;;
15820;SDS011;8011;51.650;7.240;2022-08-20T07:32:15;8.07;;;7.03;;
15820;SDS011;8011;51.650;7.240;2022-08-20T07:35:02;9.00;;;8.20;;
15820;SDS011;8011;51.650;7.240;2022-08-20T07:37:29;8.20;;;7.40;;
15820;SDS011;8011;51.650;7.240;2022-08-20T07:39:55;8.30;;;7.50;;
15820;SDS011;8011;51.650;7.240;2022-08-20T07:42:21;8.47;;;7.67;;
15820;SDS011;8011;51.650;7.240;2022-08-20T07:44:47;9.70;;;8.73;;
15820;SDS011;8011;51.650;7.240;2022-08-20T07:47:16;9.40;;;8.43;;
15820;SDS011;8011;51.650;7.240;2022-08-20T07:49:42;9.53;;;8.63;;
15820;SDS011;8011;51.650;7.240;2022-08-20T07:52:08;9.57;;;8.60;;
15820;SDS011;8011;51.650;7.240;2022-08-20T07:54:33;8.70;;;7.83;;
15820;SDS011;8011;51.650;7.240;2022-08-20T07:57:02;7.90;;;7.10;;
15820;SDS011;8011;51.650;7.240;2022-08-20T07:59:28;8.97;;;7.90;;
15820;SDS011;8011;51.650;7.240;2022-08-20T08:01:55;8.53;;;7.73;;
15820;SDS011;8011;51.650;7.240;2022-08-20T08:04:22;8.57;;;7.77;;
15820;SDS011;8011;51.650;7.240;2022-08-20T08:06:49;8.93;;;8.10;;
15820;SDS011;8011;51.650;7.240;2022-08-20T08:09:15;8.27;;;7.50;;
15820;SDS011;8011;51.650;7.240;2022-08-20T08:11:42;7.80;;;7.17;;
15820;SDS011;8011;51.650;7.240;2022-08-20T08:14:13;8.00;;;6.50;;
15820;SDS011;8011;51.650;7.240;2022-08-20T08:16:43;7.60;;;6.80;;
15820;SDS011;8011;51.650;7.240;2022-08-20T08:19:10;9.40;;;7.13;;
15820;SDS011;8011;51.650;7.240;2022-08-20T08:21:38;9.83;;;7.47;;
15820;SDS011;8011;51.650;7.240;2022-08-20T08:24:05;7.53;;;6.83;;
15820;SDS011;8011;51.650;7.240;2022-08-20T08:26:31;6.37;;;5.73;;
15820;SDS011;8011;51.650;7.240;2022-08-20T08:28:56;7.80;;;7.10;;
15820;SDS011;8011;51.650;7.240;2022-08-20T08:31:22;6.70;;;6.10;;
15820;SDS011;8011;51.650;7.240;2022-08-20T08:33:50;9.97;;;8.97;;
15820;SDS011;8011;51.650;7.240;2022-08-20T08:36:15;8.70;;;7.83;;
15820;SDS011;8011;51.650;7.240;2022-08-20T08:38:42;9.13;;;8.23;;
15820;SDS011;8011;51.650;7.240;2022-08-20T08:43:44;6.50;;;5.90;;
15820;SDS011;8011;51.650;7.240;2022-08-20T08:46:12;7.77;;;7.07;;
15820;SDS011;8011;51.650;7.240;2022-08-20T08:48:43;8.17;;;7.37;;
15820;SDS011;8011;51.650;7.240;2022-08-20T08:51:13;7.63;;;6.80;;
15820;SDS011;8011;51.650;7.240;2022-08-20T08:53:52;8.60;;;7.70;;
15820;SDS011;8011;51.650;7.240;2022-08-20T08:56:21;7.47;;;6.67;;
15820;SDS011;8011;51.650;7.240;2022-08-20T08:58:48;9.90;;;8.90;;
15820;SDS011;8011;51.650;7.240;2022-08-20T09:01:16;7.73;;;7.03;;
15820;SDS011;8011;51.650;7.240;2022-08-20T09:03:45;8.60;;;7.70;;
15820;SDS011;8011;51.650;7.240;2022-08-20T09:06:13;10.33;;;7.83;;
15820;SDS011;8011;51.650;7.240;2022-08-20T09:08:47;8.00;;;7.30;;
15820;SDS011;8011;51.650;7.240;2022-08-20T09:11:16;7.00;;;6.40;;
15820;SDS011;8011;51.650;7.240;2022-08-20T09:13:43;6.70;;;6.07;;
15820;SDS011;8011;51.650;7.240;2022-08-20T09:16:09;6.47;;;5.50;;
15820;SDS011;8011;51.650;7.240;2022-08-20T09:18:36;6.87;;;5.87;;
15820;SDS011;8011;51.650;7.240;2022-08-20T09:21:02;5.27;;;4.70;;
15820;SDS011;8011;51.650;7.240;2022-08-20T09:23:28;4.83;;;4.27;;
15820;SDS011;8011;51.650;7.240;2022-08-20T09:25:53;5.97;;;5.47;;
15820;SDS011;8011;51.650;7.240;2022-08-20T09:28:19;4.40;;;4.00;;
15820;SDS011;8011;51.650;7.240;2022-08-20T09:30:45;5.20;;;4.70;;
15820;SDS011;8011;51.650;7.240;2022-08-20T09:33:10;5.30;;;4.80;;
15820;SDS011;8011;51.650;7.240;2022-08-20T09:35:36;6.03;;;4.60;;
15820;SDS011;8011;51.650;7.240;2022-08-20T09:38:04;5.30;;;4.80;;
15820;SDS011;8011;51.650;7.240;2022-08-20T09:40:29;5.80;;;5.30;;
15820;SDS011;8011;51.650;7.240;2022-08-20T09:42:55;7.73;;;6.23;;
15820;SDS011;8011;51.650;7.240;2022-08-20T09:45:21;6.10;;;5.60;;
15820;SDS011;8011;51.650;7.240;2022-08-20T09:47:47;5.77;;;5.27;;
15820;SDS011;8011;51.650;7.240;2022-08-20T09:50:13;5.67;;;5.17;;
15820;SDS011;8011;51.650;7.240;2022-08-20T09:52:43;4.90;;;4.40;;
15820;SDS011;8011;51.650;7.240;2022-08-20T09:57:46;4.13;;;3.70;;
15820;SDS011;8011;51.650;7.240;2022-08-20T10:00:13;3.37;;;2.40;;
15820;SDS011;8011;51.650;7.240;2022-08-20T10:02:40;2.33;;;2.13;;
15820;SDS011;8011;51.650;7.240;2022-08-20T10:05:06;2.50;;;2.30;;
15820;SDS011;8011;51.650;7.240;2022-08-20T10:07:33;1.90;;;1.77;;
15820;SDS011;8011;51.650;7.240;2022-08-20T10:09:59;3.53;;;1.97;;
15820;SDS011;8011;51.650;7.240;2022-08-20T10:12:26;2.03;;;1.80;;
15820;SDS011;8011;51.650;7.240;2022-08-20T10:14:52;2.72;;;2.53;;
15820;SDS011;8011;51.650;7.240;2022-08-20T10:17:19;2.70;;;2.40;;
15820;SDS011;8011;51.650;7.240;2022-08-20T10:19:45;3.43;;;2.40;;
15820;SDS011;8011;51.650;7.240;2022-08-20T10:22:11;1.87;;;1.70;;
15820;SDS011;8011;51.650;7.240;2022-08-20T10:24:36;2.17;;;1.77;;
15820;SDS011;8011;51.650;7.240;2022-08-20T10:27:02;2.50;;;1.58;;
15820;SDS011;8011;51.650;7.240;2022-08-20T10:29:29;2.42;;;1.90;;
15820;SDS011;8011;51.650;7.240;2022-08-20T10:31:55;3.55;;;2.00;;
15820;SDS011;8011;51.650;7.240;2022-08-20T10:34:22;1.95;;;1.75;;
15820;SDS011;8011;51.650;7.240;2022-08-20T10:36:48;2.35;;;1.92;;
15820;SDS011;8011;51.650;7.240;2022-08-20T10:39:14;2.08;;;1.85;;
15820;SDS011;8011;51.650;7.240;2022-08-20T10:41:40;3.15;;;2.25;;
15820;SDS011;8011;51.650;7.240;2022-08-20T10:44:06;2.35;;;2.15;;
15820;SDS011;8011;51.650;7.240;2022-08-20T10:46:32;2.55;;;2.10;;
15820;SDS011;8011;51.650;7.240;2022-08-20T10:48:58;2.40;;;2.15;;
15820;SDS011;8011;51.650;7.240;2022-08-20T10:51:24;2.92;;;2.25;;
15820;SDS011;8011;51.650;7.240;2022-08-20T10:53:50;4.88;;;3.53;;
15820;SDS011;8011;51.650;7.240;2022-08-20T10:56:16;6.47;;;5.63;;
15820;SDS011;8011;51.650;7.240;2022-08-20T10:58:42;7.47;;;6.78;;
15820;SDS011;8011;51.650;7.240;2022-08-20T11:01:07;8.57;;;7.65;;
15820;SDS011;8011;51.650;7.240;2022-08-20T11:03:33;8.40;;;7.60;;
15820;SDS011;8011;51.650;7.240;2022-08-20T11:06:00;10.77;;;9.57;;
15820;SDS011;8011;51.650;7.240;2022-08-20T11:08:26;10.77;;;9.68;;
15820;SDS011;8011;51.650;7.240;2022-08-20T11:10:51;12.20;;;10.18;;
15820;SDS011;8011;51.650;7.240;2022-08-20T11:13:17;9.40;;;8.50;;
15820;SDS011;8011;51.650;7.240;2022-08-20T11:15:43;12.43;;;9.60;;
15820;SDS011;8011;51.650;7.240;2022-08-20T11:18:10;12.10;;;10.50;;
15820;SDS011;8011;51.650;7.240;2022-08-20T11:20:37;11.48;;;10.30;;
15820;SDS011;8011;51.650;7.240;2022-08-20T11:23:02;16.20;;;10.90;;
15820;SDS011;8011;51.650;7.240;2022-08-20T11:25:28;11.50;;;10.40;;
15820;SDS011;8011;51.650;7.240;2022-08-20T11:27:55;9.73;;;8.73;;
15820;SDS011;8011;51.650;7.240;2022-08-20T11:30:31;11.02;;;9.60;;
15820;SDS011;8011;51.650;7.240;2022-08-20T11:32:59;10.40;;;9.30;;
15820;SDS011;8011;51.650;7.240;2022-08-20T11:35:26;9.65;;;8.65;;
15820;SDS011;8011;51.650;7.240;2022-08-20T11:37:54;9.65;;;7.43;;
15820;SDS011;8011;51.650;7.240;2022-08-20T11:40:20;8.55;;;6.78;;
15820;SDS011;8011;51.650;7.240;2022-08-20T11:42:47;8.10;;;7.28;;
15820;SDS011;8011;51.650;7.240;2022-08-20T11:45:13;8.55;;;7.65;;
15820;SDS011;8011;51.650;7.240;2022-08-20T11:47:39;8.90;;;7.20;;
15820;SDS011;8011;51.650;7.240;2022-08-20T11:50:07;9.50;;;7.82;;
15820;SDS011;8011;51.650;7.240;2022-08-20T11:52:35;7.93;;;6.85;;
15820;SDS011;8011;51.650;7.240;2022-08-20T11:55:01;8.98;;;6.78;;
15820;SDS011;8011;51.650;7.240;2022-08-20T11:57:30;6.88;;;5.80;;
15820;SDS011;8011;51.650;7.240;2022-08-20T11:59:58;8.00;;;5.40;;
15820;SDS011;8011;51.650;7.240;2022-08-20T12:02:25;6.53;;;5.50;;
15820;SDS011;8011;51.650;7.240;2022-08-20T12:04:51;6.65;;;5.03;;
15820;SDS011;8011;51.650;7.240;2022-08-20T12:07:20;6.40;;;5.45;;
15820;SDS011;8011;51.650;7.240;2022-08-20T12:09:48;5.93;;;5.18;;
15820;SDS011;8011;51.650;7.240;2022-08-20T12:12:14;10.57;;;6.40;;
15820;SDS011;8011;51.650;7.240;2022-08-20T12:14:41;8.17;;;7.37;;
15820;SDS011;8011;51.650;7.240;2022-08-20T12:17:11;8.60;;;7.25;;
15820;SDS011;8011;51.650;7.240;2022-08-20T12:19:45;10.03;;;7.20;;
15820;SDS011;8011;51.650;7.240;2022-08-20T12:22:11;7.30;;;6.53;;
15820;SDS011;8011;51.650;7.240;2022-08-20T12:24:37;5.50;;;4.83;;
15820;SDS011;8011;51.650;7.240;2022-08-20T12:27:07;4.53;;;3.50;;
15820;SDS011;8011;51.650;7.240;2022-08-20T12:29:42;3.50;;;3.20;;
15820;SDS011;8011;51.650;7.240;2022-08-20T12:32:09;4.23;;;3.50;;
15820;SDS011;8011;51.650;7.240;2022-08-20T12:34:36;8.10;;;3.93;;
15820;SDS011;8011;51.650;7.240;2022-08-20T12:37:04;4.03;;;3.20;;
15820;SDS011;8011;51.650;7.240;2022-08-20T12:39:34;3.23;;;2.87;;
15820;SDS011;8011;51.650;7.240;2022-08-20T12:42:06;3.90;;;3.37;;
15820;SDS011;8011;51.650;7.240;2022-08-20T12:44:32;3.70;;;3.30;;
15820;SDS011;8011;51.650;7.240;2022-08-20T12:49:37;3.63;;;3.10;;
15820;SDS011;8011;51.650;7.240;2022-08-20T12:52:24;4.67;;;3.33;;
15820;SDS011;8011;51.650;7.240;2022-08-20T12:54:51;3.90;;;3.53;;
15820;SDS011;8011;51.650;7.240;2022-08-20T12:57:37;4.73;;;3.40;;
15820;SDS011;8011;51.650;7.240;2022-08-20T13:00:10;4.50;;;3.20;;
15820;SDS011;8011;51.650;7.240;2022-08-20T13:02:39;2.30;;;1.77;;
15820;SDS011;8011;51.650;7.240;2022-08-20T13:05:09;2.33;;;1.70;;
15820;SDS011;8011;51.650;7.240;2022-08-20T13:07:36;4.07;;;2.10;;
15820;SDS011;8011;51.650;7.240;2022-08-20T13:10:02;3.00;;;1.70;;
15820;SDS011;8011;51.650;7.240;2022-08-20T13:12:30;2.40;;;1.70;;
15820;SDS011;8011;51.650;7.240;2022-08-20T13:14:56;3.87;;;1.93;;
15820;SDS011;8011;51.650;7.240;2022-08-20T13:17:21;4.57;;;2.13;;
15820;SDS011;8011;51.650;7.240;2022-08-20T13:19:47;5.88;;;2.20;;
15820;SDS011;8011;51.650;7.240;2022-08-20T13:22:13;4.60;;;2.43;;
15820;SDS011;8011;51.650;7.240;2022-08-20T13:24:39;5.32;;;2.25;;
15820;SDS011;8011;51.650;7.240;2022-08-20T13:27:06;3.67;;;2.25;;
15820;SDS011;8011;51.650;7.240;2022-08-20T13:29:34;8.80;;;2.80;;
15820;SDS011;8011;51.650;7.240;2022-08-20T13:32:00;4.80;;;2.40;;
15820;SDS011;8011;51.650;7.240;2022-08-20T13:34:26;4.43;;;2.60;;
15820;SDS011;8011;51.650;7.240;2022-08-20T13:36:52;3.35;;;1.92;;
15820;SDS011;8011;51.650;7.240;2022-08-20T13:39:19;3.47;;;2.15;;
15820;SDS011;8011;51.650;7.240;2022-08-20T13:41:46;4.97;;;2.53;;
15820;SDS011;8011;51.650;7.240;2022-08-20T13:44:11;3.72;;;1.88;;
15820;SDS011;8011;51.650;7.240;2022-08-20T13:46:37;4.15;;;2.15;;
15820;SDS011;8011;51.650;7.240;2022-08-20T13:49:03;3.38;;;2.05;;
15820;SDS011;8011;51.650;7.240;2022-08-20T13:51:28;4.00;;;2.40;;
15820;SDS011;8011;51.650;7.240;2022-08-20T13:53:54;4.03;;;2.20;;
15820;SDS011;8011;51.650;7.240;2022-08-20T13:56:20;4.93;;;2.28;;
15820;SDS011;8011;51.650;7.240;2022-08-20T13:58:46;4.75;;;2.33;;
15820;SDS011;8011;51.650;7.240;2022-08-20T14:01:12;4.05;;;2.50;;
15820;SDS011;8011;51.650;7.240;2022-08-20T14:03:38;2.83;;;2.10;;
15820;SDS011;8011;51.650;7.240;2022-08-20T14:06:04;4.30;;;2.03;;
15820;SDS011;8011;51.650;7.240;2022-08-20T14:08:33;4.40;;;2.10;;
15820;SDS011;8011;51.650;7.240;2022-08-20T14:10:59;4.75;;;2.60;;
15820;SDS011;8011;51.650;7.240;2022-08-20T14:13:25;7.57;;;2.33;;
15820;SDS011;8011;51.650;7.240;2022-08-20T14:15:51;4.72;;;2.38;;
15820;SDS011;8011;51.650;7.240;2022-08-20T14:18:17;4.32;;;2.42;;
15820;SDS011;8011;51.650;7.240;2022-08-20T14:20:43;6.07;;;2.40;;
15820;SDS011;8011;51.650;7.240;2022-08-20T14:23:09;5.63;;;2.40;;
15820;SDS011;8011;51.650;7.240;2022-08-20T14:25:35;2.88;;;2.28;;
15820;SDS011;8011;51.650;7.240;2022-08-20T14:28:11;3.63;;;2.28;;
15820;SDS011;8011;51.650;7.240;2022-08-20T14:30:39;4.90;;;2.38;;
15820;SDS011;8011;51.650;7.240;2022-08-20T14:33:05;5.20;;;2.40;;
15820;SDS011;8011;51.650;7.240;2022-08-20T14:35:31;4.97;;;2.42;;
15820;SDS011;8011;51.650;7.240;2022-08-20T14:37:57;3.03;;;2.00;;
15820;SDS011;8011;51.650;7.240;2022-08-20T14:40:23;3.38;;;1.75;;
15820;SDS011;8011;51.650;7.240;2022-08-20T14:42:50;4.97;;;1.92;;
15820;SDS011;8011;51.650;7.240;2022-08-20T14:45:16;2.58;;;1.60;;
15820;SDS011;8011;51.650;7.240;2022-08-20T14:47:43;3.80;;;1.95;;
15820;SDS011;8011;51.650;7.240;2022-08-20T14:50:13;3.97;;;1.70;;
15820;SDS011;8011;51.650;7.240;2022-08-20T14:52:40;3.80;;;1.90;;
15820;SDS011;8011;51.650;7.240;2022-08-20T14:55:08;2.50;;;1.60;;
15820;SDS011;8011;51.650;7.240;2022-08-20T14:57:36;4.38;;;2.10;;
15820;SDS011;8011;51.650;7.240;2022-08-20T15:00:04;5.07;;;1.77;;
15820;SDS011;8011;51.650;7.240;2022-08-20T15:02:34;4.72;;;1.88;;
15820;SDS011;8011;51.650;7.240;2022-08-20T15:04:59;4.80;;;1.98;;
15820;SDS011;8011;51.650;7.240;2022-08-20T15:07:26;3.97;;;1.73;;
15820;SDS011;8011;51.650;7.240;2022-08-20T15:09:58;5.00;;;2.75;;
15820;SDS011;8011;51.650;7.240;2022-08-20T15:12:25;6.95;;;2.35;;
15820;SDS011;8011;51.650;7.240;2022-08-20T15:14:51;4.28;;;1.52;;
15820;SDS011;8011;51.650;7.240;2022-08-20T15:17:21;6.47;;;2.20;;
15820;SDS011;8011;51.650;7.240;2022-08-20T15:19:49;4.43;;;1.95;;
15820;SDS011;8011;51.650;7.240;2022-08-20T15:22:15;5.38;;;1.98;;
15820;SDS011;8011;51.650;7.240;2022-08-20T15:24:41;5.57;;;1.90;;
15820;SDS011;8011;51.650;7.240;2022-08-20T15:27:17;3.05;;;1.73;;
15820;SDS011;8011;51.650;7.240;2022-08-20T15:29:45;4.10;;;1.70;;
15820;SDS011;8011;51.650;7.240;2022-08-20T15:32:11;3.25;;;1.48;;
15820;SDS011;8011;51.650;7.240;2022-08-20T15:34:38;3.75;;;1.73;;
15820;SDS011;8011;51.650;7.240;2022-08-20T15:37:05;6.20;;;2.50;;
15820;SDS011;8011;51.650;7.240;2022-08-20T15:39:35;4.90;;;2.63;;
15820;SDS011;8011;51.650;7.240;2022-08-20T15:42:02;5.35;;;1.80;;
15820;SDS011;8011;51.650;7.240;2022-08-20T15:44:29;4.43;;;1.73;;
15820;SDS011;8011;51.650;7.240;2022-08-20T15:46:55;4.63;;;1.60;;
15820;SDS011;8011;51.650;7.240;2022-08-20T15:49:35;4.05;;;1.75;;
15820;SDS011;8011;51.650;7.240;2022-08-20T15:52:01;5.43;;;2.00;;
15820;SDS011;8011;51.650;7.240;2022-08-20T15:54:28;3.92;;;1.70;;
15820;SDS011;8011;51.650;7.240;2022-08-20T16:05:43;4.35;;;1.75;;
15820;SDS011;8011;51.650;7.240;2022-08-20T16:11:18;3.80;;;1.83;;
15820;SDS011;8011;51.650;7.240;2022-08-20T16:14:29;5.28;;;1.70;;
15820;SDS011;8011;51.650;7.240;2022-08-20T16:19:20;4.18;;;1.70;;
15820;SDS011;8011;51.650;7.240;2022-08-20T16:21:49;4.60;;;1.60;;
15820;SDS011;8011;51.650;7.240;2022-08-20T16:24:17;3.08;;;1.35;;
15820;SDS011;8011;51.650;7.240;2022-08-20T16:29:44;2.97;;;1.40;;
15820;SDS011;8011;51.650;7.240;2022-08-20T16:35:00;2.70;;;1.25;;
15820;SDS011;8011;51.650;7.240;2022-08-20T16:40:33;3.67;;;1.60;;
15820;SDS011;8011;51.650;7.240;2022-08-20T16:43:07;6.53;;;1.65;;
15820;SDS011;8011;51.650;7.240;2022-08-20T16:45:41;4.43;;;1.70;;
15820;SDS011;8011;51.650;7.240;2022-08-20T16:48:12;3.72;;;1.48;;
15820;SDS011;8011;51.650;7.240;2022-08-20T16:50:39;4.40;;;1.65;;
15820;SDS011;8011;51.650;7.240;2022-08-20T16:53:14;5.88;;;1.70;;
15820;SDS011;8011;51.650;7.240;2022-08-20T16:55:43;5.70;;;1.73;;
15820;SDS011;8011;51.650;7.240;2022-08-20T16:58:09;6.43;;;1.45;;
15820;SDS011;8011;51.650;7.240;2022-08-20T17:00:34;8.02;;;1.63;;
15820;SDS011;8011;51.650;7.240;2022-08-20T17:03:03;3.22;;;1.52;;
15820;SDS011;8011;51.650;7.240;2022-08-20T17:08:03;3.40;;;1.70;;
15820;SDS011;8011;51.650;7.240;2022-08-20T17:10:32;5.80;;;1.88;;
15820;SDS011;8011;51.650;7.240;2022-08-20T17:15:59;3.15;;;1.27;;
15820;SDS011;8011;51.650;7.240;2022-08-20T17:18:29;3.75;;;1.30;;
15820;SDS011;8011;51.650;7.240;2022-08-20T17:21:45;4.43;;;1.50;;
15820;SDS011;8011;51.650;7.240;2022-08-20T17:23:57;3.92;;;1.60;;
15820;SDS011;8011;51.650;7.240;2022-08-20T17:29:00;4.38;;;1.77;;
15820;SDS011;8011;51.650;7.240;2022-08-20T17:31:35;7.25;;;1.42;;
15820;SDS011;8011;51.650;7.240;2022-08-20T17:34:02;4.78;;;1.63;;
15820;SDS011;8011;51.650;7.240;2022-08-20T17:36:28;3.05;;;1.40;;
15820;SDS011;8011;51.650;7.240;2022-08-20T17:38:56;4.30;;;1.70;;
15820;SDS011;8011;51.650;7.240;2022-08-20T17:41:29;6.15;;;1.70;;
15820;SDS011;8011;51.650;7.240;2022-08-20T17:44:11;4.68;;;1.33;;
15820;SDS011;8011;51.650;7.240;2022-08-20T17:46:46;4.57;;;2.23;;
15820;SDS011;8011;51.650;7.240;2022-08-20T17:49:14;3.13;;;1.50;;
15820;SDS011;8011;51.650;7.240;2022-08-20T17:51:47;4.93;;;1.60;;
15820;SDS011;8011;51.650;7.240;2022-08-20T17:54:29;4.13;;;1.50;;
15820;SDS011;8011;51.650;7.240;2022-08-20T17:56:59;6.53;;;1.43;;
15820;SDS011;8011;51.650;7.240;2022-08-20T17:59:30;5.75;;;1.60;;
15820;SDS011;8011;51.650;7.240;2022-08-20T18:01:59;4.70;;;1.40;;
15820;SDS011;8011;51.650;7.240;2022-08-20T18:04:26;6.60;;;1.38;;
15820;SDS011;8011;51.650;7.240;2022-08-20T18:12:09;7.47;;;1.58;;
15820;SDS011;8011;51.650;7.240;2022-08-20T18:20:10;4.95;;;1.75;;
15820;SDS011;8011;51.650;7.240;2022-08-20T18:22:47;3.28;;;1.70;;
15820;SDS011;8011;51.650;7.240;2022-08-20T18:25:39;5.35;;;1.67;;
15820;SDS011;8011;51.650;7.240;2022-08-20T18:30:45;3.70;;;1.70;;
15820;SDS011;8011;51.650;7.240;2022-08-20T18:33:12;5.40;;;1.83;;
15820;SDS011;8011;51.650;7.240;2022-08-20T18:35:38;3.13;;;1.40;;
15820;SDS011;8011;51.650;7.240;2022-08-20T18:38:55;2.88;;;1.65;;
15820;SDS011;8011;51.650;7.240;2022-08-20T18:41:06;4.70;;;1.42;;
15820;SDS011;8011;51.650;7.240;2022-08-20T18:43:37;3.10;;;1.38;;
15820;SDS011;8011;51.650;7.240;2022-08-20T18:46:20;2.35;;;1.40;;
15820;SDS011;8011;51.650;7.240;2022-08-20T18:48:51;5.15;;;1.60;;
15820;SDS011;8011;51.650;7.240;2022-08-20T18:51:20;2.40;;;1.40;;
15820;SDS011;8011;51.650;7.240;2022-08-20T18:53:53;2.95;;;1.55;;